sensor_id;sensor_type;location;lat;lon;timestamp;temperature;humidity
7016;DHT22;3548;48.402;9.990;2022-08-01T00:01:43;20.50;92.60
7016;DHT22;3548;48.402;9.990;2022-08-01T00:04:08;20.50;92.70
7016;DHT22;3548;48.402;9.990;2022-08-01T00:06:34;20.50;92.80
7016;DHT22;3548;48.402;9.990;2022-08-01T00:09:00;20.50;93.10
7016;DHT22;3548;48.402;9.990;2022-08-01T00:11:25;20.40;93.40
7016;DHT22;3548;48.402;9.990;2022-08-01T00:13:51;20.40;93.80
7016;DHT22;3548;48.402;9.990;2022-08-01T00:16:16;20.30;94.80
7016;DHT22;3548;48.402;9.990;2022-08-01T00:18:42;20.20;95.20
7016;DHT22;3548;48.402;9.990;2022-08-01T00:21:07;20.20;95.00
7016;DHT22;3548;48.402;9.990;2022-08-01T00:23:33;20.20;94.30
7016;DHT22;3548;48.402;9.990;2022-08-01T00:25:59;20.20;94.10
7016;DHT22;3548;48.402;9.990;2022-08-01T00:28:24;20.20;93.50
7016;DHT22;3548;48.402;9.990;2022-08-01T00:30:50;20.30;93.00
7016;DHT22;3548;48.402;9.990;2022-08-01T00:33:15;20.30;92.90
7016;DHT22;3548;48.402;9.990;2022-08-01T00:35:41;20.40;92.60
7016;DHT22;3548;48.402;9.990;2022-08-01T00:38:06;20.40;92.20
7016;DHT22;3548;48.402;9.990;2022-08-01T00:40:32;20.50;92.00
7016;DHT22;3548;48.402;9.990;2022-08-01T00:42:57;20.60;91.90
7016;DHT22;3548;48.402;9.990;2022-08-01T00:45:23;20.60;91.80
7016;DHT22;3548;48.402;9.990;2022-08-01T00:47:48;20.60;91.60
7016;DHT22;3548;48.402;9.990;2022-08-01T00:50:14;20.70;91.50
7016;DHT22;3548;48.402;9.990;2022-08-01T00:52:40;20.70;91.20
7016;DHT22;3548;48.402;9.990;2022-08-01T00:55:06;20.70;91.20
7016;DHT22;3548;48.402;9.990;2022-08-01T00:57:32;20.70;91.10
7016;DHT22;3548;48.402;9.990;2022-08-01T00:59:58;20.80;90.90
7016;DHT22;3548;48.402;9.990;2022-08-01T01:02:24;20.80;90.70
7016;DHT22;3548;48.402;9.990;2022-08-01T01:04:49;20.80;90.40
7016;DHT22;3548;48.402;9.990;2022-08-01T01:07:24;20.80;90.30
7016;DHT22;3548;48.402;9.990;2022-08-01T01:12:44;20.90;90.00
7016;DHT22;3548;48.402;9.990;2022-08-01T01:17:58;21.00;89.40
7016;DHT22;3548;48.402;9.990;2022-08-01T01:20:37;21.00;89.40
7016;DHT22;3548;48.402;9.990;2022-08-01T01:23:21;21.00;89.10
7016;DHT22;3548;48.402;9.990;2022-08-01T01:31:26;21.00;89.10
7016;DHT22;3548;48.402;9.990;2022-08-01T01:33:53;20.90;89.20
7016;DHT22;3548;48.402;9.990;2022-08-01T01:36:21;20.90;89.20
7016;DHT22;3548;48.402;9.990;2022-08-01T01:38:51;20.90;89.50
7016;DHT22;3548;48.402;9.990;2022-08-01T01:41:17;20.80;89.70
7016;DHT22;3548;48.402;9.990;2022-08-01T01:43:45;20.80;89.70
7016;DHT22;3548;48.402;9.990;2022-08-01T01:46:16;20.90;89.70
7016;DHT22;3548;48.402;9.990;2022-08-01T01:48:45;20.80;89.80
7016;DHT22;3548;48.402;9.990;2022-08-01T01:51:13;20.70;90.00
7016;DHT22;3548;48.402;9.990;2022-08-01T01:53:40;20.70;90.20
7016;DHT22;3548;48.402;9.990;2022-08-01T01:56:06;20.60;90.40
7016;DHT22;3548;48.402;9.990;2022-08-01T01:58:34;20.40;90.60
7016;DHT22;3548;48.402;9.990;2022-08-01T02:01:02;20.40;90.90
7016;DHT22;3548;48.402;9.990;2022-08-01T02:03:29;20.20;91.10
7016;DHT22;3548;48.402;9.990;2022-08-01T02:05:55;20.20;91.50
7016;DHT22;3548;48.402;9.990;2022-08-01T02:08:23;20.10;91.70
7016;DHT22;3548;48.402;9.990;2022-08-01T02:10:51;20.00;92.00
7016;DHT22;3548;48.402;9.990;2022-08-01T02:13:37;19.90;92.30
7016;DHT22;3548;48.402;9.990;2022-08-01T02:16:04;19.80;92.90
7016;DHT22;3548;48.402;9.990;2022-08-01T02:18:30;19.70;93.30
7016;DHT22;3548;48.402;9.990;2022-08-01T02:20:58;19.70;93.80
7016;DHT22;3548;48.402;9.990;2022-08-01T02:23:28;19.60;94.40
7016;DHT22;3548;48.402;9.990;2022-08-01T02:25:57;19.60;95.00
7016;DHT22;3548;48.402;9.990;2022-08-01T02:28:38;19.50;95.60
7016;DHT22;3548;48.402;9.990;2022-08-01T02:31:07;19.50;96.00
7016;DHT22;3548;48.402;9.990;2022-08-01T02:33:39;19.40;96.40
7016;DHT22;3548;48.402;9.990;2022-08-01T02:36:06;19.40;96.70
7016;DHT22;3548;48.402;9.990;2022-08-01T02:38:35;19.40;97.00
7016;DHT22;3548;48.402;9.990;2022-08-01T02:41:05;19.40;97.30
7016;DHT22;3548;48.402;9.990;2022-08-01T02:43:37;19.40;97.40
7016;DHT22;3548;48.402;9.990;2022-08-01T02:46:06;19.30;97.60
7016;DHT22;3548;48.402;9.990;2022-08-01T02:48:35;19.30;97.80
7016;DHT22;3548;48.402;9.990;2022-08-01T02:51:04;19.20;98.00
7016;DHT22;3548;48.402;9.990;2022-08-01T02:53:33;19.20;98.30
7016;DHT22;3548;48.402;9.990;2022-08-01T02:56:06;19.20;98.30
7016;DHT22;3548;48.402;9.990;2022-08-01T02:58:34;19.10;98.60
7016;DHT22;3548;48.402;9.990;2022-08-01T03:01:01;19.10;98.80
7016;DHT22;3548;48.402;9.990;2022-08-01T03:03:27;19.00;98.90
7016;DHT22;3548;48.402;9.990;2022-08-01T03:05:53;19.00;99.30
7016;DHT22;3548;48.402;9.990;2022-08-01T03:08:20;18.90;99.40
7016;DHT22;3548;48.402;9.990;2022-08-01T03:10:48;18.90;99.50
7016;DHT22;3548;48.402;9.990;2022-08-01T03:13:15;18.90;99.70
7016;DHT22;3548;48.402;9.990;2022-08-01T03:15:43;18.90;99.80
7016;DHT22;3548;48.402;9.990;2022-08-01T03:18:10;18.90;99.90
7016;DHT22;3548;48.402;9.990;2022-08-01T03:20:37;18.90;99.90
7016;DHT22;3548;48.402;9.990;2022-08-01T03:23:06;18.80;99.90
7016;DHT22;3548;48.402;9.990;2022-08-01T03:25:34;18.80;99.90
7016;DHT22;3548;48.402;9.990;2022-08-01T03:28:03;18.90;99.90
7016;DHT22;3548;48.402;9.990;2022-08-01T03:30:31;18.90;99.90
7016;DHT22;3548;48.402;9.990;2022-08-01T03:32:58;18.90;99.90
7016;DHT22;3548;48.402;9.990;2022-08-01T03:35:39;18.90;99.90
7016;DHT22;3548;48.402;9.990;2022-08-01T03:38:07;18.90;99.90
7016;DHT22;3548;48.402;9.990;2022-08-01T03:40:39;18.80;99.90
7016;DHT22;3548;48.402;9.990;2022-08-01T03:43:15;18.80;99.90
7016;DHT22;3548;48.402;9.990;2022-08-01T03:45:45;18.80;99.90
7016;DHT22;3548;48.402;9.990;2022-08-01T03:48:17;18.80;99.90
7016;DHT22;3548;48.402;9.990;2022-08-01T03:50:46;18.80;99.90
7016;DHT22;3548;48.402;9.990;2022-08-01T03:53:13;18.80;99.90
7016;DHT22;3548;48.402;9.990;2022-08-01T03:55:41;18.80;99.90
7016;DHT22;3548;48.402;9.990;2022-08-01T03:58:09;18.80;99.90
7016;DHT22;3548;48.402;9.990;2022-08-01T04:00:36;18.80;99.90
7016;DHT22;3548;48.402;9.990;2022-08-01T04:03:08;18.80;99.90
7016;DHT22;3548;48.402;9.990;2022-08-01T04:05:34;18.70;99.90
7016;DHT22;3548;48.402;9.990;2022-08-01T04:08:00;18.70;99.90
7016;DHT22;3548;48.402;9.990;2022-08-01T04:10:28;18.70;99.90
7016;DHT22;3548;48.402;9.990;2022-08-01T04:12:54;18.70;99.90
7016;DHT22;3548;48.402;9.990;2022-08-01T04:15:20;18.70;99.90
7016;DHT22;3548;48.402;9.990;2022-08-01T04:17:46;18.70;99.90
7016;DHT22;3548;48.402;9.990;2022-08-01T04:20:12;18.80;99.90
7016;DHT22;3548;48.402;9.990;2022-08-01T04:22:38;18.80;99.90
7016;DHT22;3548;48.402;9.990;2022-08-01T04:25:11;18.80;99.90
7016;DHT22;3548;48.402;9.990;2022-08-01T04:27:40;18.80;99.90
7016;DHT22;3548;48.402;9.990;2022-08-01T04:30:08;18.80;99.90
7016;DHT22;3548;48.402;9.990;2022-08-01T04:32:37;18.80;99.90
7016;DHT22;3548;48.402;9.990;2022-08-01T04:35:06;18.90;99.90
7016;DHT22;3548;48.402;9.990;2022-08-01T04:37:33;19.00;99.90
7016;DHT22;3548;48.402;9.990;2022-08-01T04:40:03;19.10;99.90
7016;DHT22;3548;48.402;9.990;2022-08-01T04:42:30;19.20;99.90
7016;DHT22;3548;48.402;9.990;2022-08-01T04:44:57;19.30;99.90
7016;DHT22;3548;48.402;9.990;2022-08-01T04:47:25;19.30;99.90
7016;DHT22;3548;48.402;9.990;2022-08-01T04:49:51;19.50;99.90
7016;DHT22;3548;48.402;9.990;2022-08-01T04:52:17;19.50;99.90
7016;DHT22;3548;48.402;9.990;2022-08-01T04:54:43;19.60;99.90
7016;DHT22;3548;48.402;9.990;2022-08-01T04:57:09;19.70;99.90
7016;DHT22;3548;48.402;9.990;2022-08-01T04:59:36;19.80;99.90
7016;DHT22;3548;48.402;9.990;2022-08-01T05:02:11;19.80;99.90
7016;DHT22;3548;48.402;9.990;2022-08-01T05:04:38;19.80;99.90
7016;DHT22;3548;48.402;9.990;2022-08-01T05:07:05;19.70;99.90
7016;DHT22;3548;48.402;9.990;2022-08-01T05:09:31;19.60;99.90
7016;DHT22;3548;48.402;9.990;2022-08-01T05:11:58;19.50;99.90
7016;DHT22;3548;48.402;9.990;2022-08-01T05:14:25;19.40;99.90
7016;DHT22;3548;48.402;9.990;2022-08-01T05:16:51;19.40;99.90
7016;DHT22;3548;48.402;9.990;2022-08-01T05:19:17;19.40;99.90
7016;DHT22;3548;48.402;9.990;2022-08-01T05:21:43;19.40;99.90
7016;DHT22;3548;48.402;9.990;2022-08-01T05:24:09;19.50;99.90
7016;DHT22;3548;48.402;9.990;2022-08-01T05:26:35;19.50;99.90
7016;DHT22;3548;48.402;9.990;2022-08-01T05:29:00;19.70;99.90
7016;DHT22;3548;48.402;9.990;2022-08-01T05:31:26;19.90;99.90
7016;DHT22;3548;48.402;9.990;2022-08-01T05:33:52;20.00;99.90
7016;DHT22;3548;48.402;9.990;2022-08-01T05:36:17;20.10;99.90
7016;DHT22;3548;48.402;9.990;2022-08-01T05:38:43;20.20;99.70
7016;DHT22;3548;48.402;9.990;2022-08-01T05:41:09;20.20;99.70
7016;DHT22;3548;48.402;9.990;2022-08-01T05:43:35;20.20;99.50
7016;DHT22;3548;48.402;9.990;2022-08-01T05:46:00;20.30;99.30
7016;DHT22;3548;48.402;9.990;2022-08-01T05:48:26;20.40;99.10
7016;DHT22;3548;48.402;9.990;2022-08-01T05:50:53;20.50;99.10
7016;DHT22;3548;48.402;9.990;2022-08-01T05:53:18;20.60;98.90
7016;DHT22;3548;48.402;9.990;2022-08-01T05:55:44;20.70;98.80
7016;DHT22;3548;48.402;9.990;2022-08-01T05:58:09;20.80;98.70
7016;DHT22;3548;48.402;9.990;2022-08-01T06:00:35;20.90;98.60
7016;DHT22;3548;48.402;9.990;2022-08-01T06:03:01;21.00;98.40
7016;DHT22;3548;48.402;9.990;2022-08-01T06:05:26;21.00;98.40
7016;DHT22;3548;48.402;9.990;2022-08-01T06:07:52;21.10;98.20
7016;DHT22;3548;48.402;9.990;2022-08-01T06:10:17;21.20;98.10
7016;DHT22;3548;48.402;9.990;2022-08-01T06:12:43;21.30;98.20
7016;DHT22;3548;48.402;9.990;2022-08-01T06:15:09;21.30;97.80
7016;DHT22;3548;48.402;9.990;2022-08-01T06:17:34;21.40;97.80
7016;DHT22;3548;48.402;9.990;2022-08-01T06:20:00;21.50;97.90
7016;DHT22;3548;48.402;9.990;2022-08-01T06:22:26;21.50;97.80
7016;DHT22;3548;48.402;9.990;2022-08-01T06:24:51;21.60;97.60
7016;DHT22;3548;48.402;9.990;2022-08-01T06:27:17;21.60;97.70
7016;DHT22;3548;48.402;9.990;2022-08-01T06:29:43;21.60;97.50
7016;DHT22;3548;48.402;9.990;2022-08-01T06:32:09;21.70;97.70
7016;DHT22;3548;48.402;9.990;2022-08-01T06:34:35;21.80;97.60
7016;DHT22;3548;48.402;9.990;2022-08-01T06:37:01;21.90;97.40
7016;DHT22;3548;48.402;9.990;2022-08-01T06:39:26;22.00;97.50
7016;DHT22;3548;48.402;9.990;2022-08-01T06:41:52;22.00;97.30
7016;DHT22;3548;48.402;9.990;2022-08-01T06:44:18;22.10;97.30
7016;DHT22;3548;48.402;9.990;2022-08-01T06:46:43;22.10;97.20
7016;DHT22;3548;48.402;9.990;2022-08-01T06:49:09;22.20;97.20
7016;DHT22;3548;48.402;9.990;2022-08-01T06:51:34;22.20;97.20
7016;DHT22;3548;48.402;9.990;2022-08-01T06:54:00;22.30;97.20
7016;DHT22;3548;48.402;9.990;2022-08-01T06:56:26;22.40;97.20
7016;DHT22;3548;48.402;9.990;2022-08-01T06:58:51;22.50;97.10
7016;DHT22;3548;48.402;9.990;2022-08-01T07:01:17;22.50;97.00
7016;DHT22;3548;48.402;9.990;2022-08-01T07:03:42;22.60;97.00
7016;DHT22;3548;48.402;9.990;2022-08-01T07:06:08;22.60;97.00
7016;DHT22;3548;48.402;9.990;2022-08-01T07:08:34;22.70;97.10
7016;DHT22;3548;48.402;9.990;2022-08-01T07:11:00;22.70;97.30
7016;DHT22;3548;48.402;9.990;2022-08-01T07:13:26;22.80;97.10
7016;DHT22;3548;48.402;9.990;2022-08-01T07:15:52;22.90;96.90
7016;DHT22;3548;48.402;9.990;2022-08-01T07:18:18;23.00;96.80
7016;DHT22;3548;48.402;9.990;2022-08-01T07:20:44;23.10;96.60
7016;DHT22;3548;48.402;9.990;2022-08-01T07:23:12;23.10;96.60
7016;DHT22;3548;48.402;9.990;2022-08-01T07:25:37;23.20;96.30
7016;DHT22;3548;48.402;9.990;2022-08-01T07:28:03;23.30;96.30
7016;DHT22;3548;48.402;9.990;2022-08-01T07:30:29;23.30;96.10
7016;DHT22;3548;48.402;9.990;2022-08-01T07:32:55;23.40;96.00
7016;DHT22;3548;48.402;9.990;2022-08-01T07:35:21;23.50;95.80
7016;DHT22;3548;48.402;9.990;2022-08-01T07:37:46;23.60;95.60
7016;DHT22;3548;48.402;9.990;2022-08-01T07:40:12;23.70;95.40
7016;DHT22;3548;48.402;9.990;2022-08-01T07:42:38;23.80;95.20
7016;DHT22;3548;48.402;9.990;2022-08-01T07:45:03;23.80;95.00
7016;DHT22;3548;48.402;9.990;2022-08-01T07:47:29;23.90;94.90
7016;DHT22;3548;48.402;9.990;2022-08-01T07:50:03;24.00;94.80
7016;DHT22;3548;48.402;9.990;2022-08-01T07:52:28;24.10;94.20
7016;DHT22;3548;48.402;9.990;2022-08-01T07:54:55;24.10;94.30
7016;DHT22;3548;48.402;9.990;2022-08-01T07:57:22;24.00;94.20
7016;DHT22;3548;48.402;9.990;2022-08-01T07:59:48;24.10;94.20
7016;DHT22;3548;48.402;9.990;2022-08-01T08:02:13;24.10;94.30
7016;DHT22;3548;48.402;9.990;2022-08-01T08:04:39;24.20;94.00
7016;DHT22;3548;48.402;9.990;2022-08-01T08:07:04;24.30;93.60
7016;DHT22;3548;48.402;9.990;2022-08-01T08:09:30;24.50;93.70
7016;DHT22;3548;48.402;9.990;2022-08-01T08:11:56;24.50;93.50
7016;DHT22;3548;48.402;9.990;2022-08-01T08:14:21;24.70;93.50
7016;DHT22;3548;48.402;9.990;2022-08-01T08:16:48;24.80;93.30
7016;DHT22;3548;48.402;9.990;2022-08-01T08:19:13;25.00;92.90
7016;DHT22;3548;48.402;9.990;2022-08-01T08:21:40;25.10;92.70
7016;DHT22;3548;48.402;9.990;2022-08-01T08:24:07;25.20;92.60
7016;DHT22;3548;48.402;9.990;2022-08-01T08:26:45;25.40;92.20
7016;DHT22;3548;48.402;9.990;2022-08-01T08:29:10;25.50;91.90
7016;DHT22;3548;48.402;9.990;2022-08-01T08:31:36;25.70;91.60
7016;DHT22;3548;48.402;9.990;2022-08-01T08:34:01;25.70;91.20
7016;DHT22;3548;48.402;9.990;2022-08-01T08:36:27;25.70;91.30
7016;DHT22;3548;48.402;9.990;2022-08-01T08:38:53;25.80;90.90
7016;DHT22;3548;48.402;9.990;2022-08-01T08:41:18;25.70;90.70
7016;DHT22;3548;48.402;9.990;2022-08-01T08:43:44;25.70;90.70
7016;DHT22;3548;48.402;9.990;2022-08-01T08:46:11;25.80;90.90
7016;DHT22;3548;48.402;9.990;2022-08-01T08:48:39;25.90;90.50
7016;DHT22;3548;48.402;9.990;2022-08-01T08:51:06;26.20;90.50
7016;DHT22;3548;48.402;9.990;2022-08-01T08:53:35;26.30;90.00
7016;DHT22;3548;48.402;9.990;2022-08-01T08:56:02;26.50;89.40
7016;DHT22;3548;48.402;9.990;2022-08-01T08:58:30;26.70;88.50
7016;DHT22;3548;48.402;9.990;2022-08-01T09:00:59;27.00;88.40
7016;DHT22;3548;48.402;9.990;2022-08-01T09:03:25;27.20;86.70
7016;DHT22;3548;48.402;9.990;2022-08-01T09:05:53;27.30;86.10
7016;DHT22;3548;48.402;9.990;2022-08-01T09:08:18;27.40;85.00
7016;DHT22;3548;48.402;9.990;2022-08-01T09:10:44;27.30;83.80
7016;DHT22;3548;48.402;9.990;2022-08-01T09:13:12;27.10;84.20
7016;DHT22;3548;48.402;9.990;2022-08-01T09:15:53;27.00;84.70
7016;DHT22;3548;48.402;9.990;2022-08-01T09:18:39;26.90;84.00
7016;DHT22;3548;48.402;9.990;2022-08-01T09:23:52;27.10;84.30
7016;DHT22;3548;48.402;9.990;2022-08-01T09:26:20;27.20;82.50
7016;DHT22;3548;48.402;9.990;2022-08-01T09:28:47;27.30;82.30
7016;DHT22;3548;48.402;9.990;2022-08-01T09:31:15;27.40;81.40
7016;DHT22;3548;48.402;9.990;2022-08-01T09:33:55;27.40;80.90
7016;DHT22;3548;48.402;9.990;2022-08-01T09:36:23;27.30;79.50
7016;DHT22;3548;48.402;9.990;2022-08-01T09:38:51;27.20;80.20
7016;DHT22;3548;48.402;9.990;2022-08-01T09:41:17;26.90;80.50
7016;DHT22;3548;48.402;9.990;2022-08-01T09:43:53;26.70;80.90
7016;DHT22;3548;48.402;9.990;2022-08-01T09:46:18;26.50;81.70
7016;DHT22;3548;48.402;9.990;2022-08-01T09:48:58;26.30;81.20
7016;DHT22;3548;48.402;9.990;2022-08-01T09:51:35;26.30;81.20
7016;DHT22;3548;48.402;9.990;2022-08-01T09:54:03;26.40;81.00
7016;DHT22;3548;48.402;9.990;2022-08-01T09:56:38;26.50;80.10
7016;DHT22;3548;48.402;9.990;2022-08-01T09:59:05;26.80;80.30
7016;DHT22;3548;48.402;9.990;2022-08-01T10:01:48;27.10;79.30
7016;DHT22;3548;48.402;9.990;2022-08-01T10:04:17;27.20;78.60
7016;DHT22;3548;48.402;9.990;2022-08-01T10:06:46;27.40;76.90
7016;DHT22;3548;48.402;9.990;2022-08-01T10:09:16;27.30;76.40
7016;DHT22;3548;48.402;9.990;2022-08-01T10:11:52;27.30;76.60
7016;DHT22;3548;48.402;9.990;2022-08-01T10:14:17;27.50;76.10
7016;DHT22;3548;48.402;9.990;2022-08-01T10:16:45;27.50;75.80
7016;DHT22;3548;48.402;9.990;2022-08-01T10:19:13;27.80;75.60
7016;DHT22;3548;48.402;9.990;2022-08-01T10:21:40;27.90;75.10
7016;DHT22;3548;48.402;9.990;2022-08-01T10:24:07;28.10;73.80
7016;DHT22;3548;48.402;9.990;2022-08-01T10:26:35;28.10;73.50
7016;DHT22;3548;48.402;9.990;2022-08-01T10:29:02;28.20;73.00
7016;DHT22;3548;48.402;9.990;2022-08-01T10:31:28;28.30;72.50
7016;DHT22;3548;48.402;9.990;2022-08-01T10:33:58;28.20;72.90
7016;DHT22;3548;48.402;9.990;2022-08-01T10:36:24;28.00;72.10
7016;DHT22;3548;48.402;9.990;2022-08-01T10:38:50;28.00;72.90
7016;DHT22;3548;48.402;9.990;2022-08-01T10:41:19;28.20;72.60
7016;DHT22;3548;48.402;9.990;2022-08-01T10:43:44;28.50;73.00
7016;DHT22;3548;48.402;9.990;2022-08-01T10:46:10;28.60;71.80
7016;DHT22;3548;48.402;9.990;2022-08-01T10:48:52;28.60;71.00
7016;DHT22;3548;48.402;9.990;2022-08-01T10:51:20;28.40;71.60
7016;DHT22;3548;48.402;9.990;2022-08-01T10:53:54;28.50;70.80
7016;DHT22;3548;48.402;9.990;2022-08-01T10:56:21;28.20;70.10
7016;DHT22;3548;48.402;9.990;2022-08-01T10:58:48;28.10;70.60
7016;DHT22;3548;48.402;9.990;2022-08-01T11:01:23;27.80;70.60
7016;DHT22;3548;48.402;9.990;2022-08-01T11:06:25;27.40;71.90
7016;DHT22;3548;48.402;9.990;2022-08-01T11:08:52;27.40;71.90
7016;DHT22;3548;48.402;9.990;2022-08-01T11:11:19;27.50;71.90
7016;DHT22;3548;48.402;9.990;2022-08-01T11:16:28;27.80;70.30
7016;DHT22;3548;48.402;9.990;2022-08-01T11:18:54;28.00;70.10
7016;DHT22;3548;48.402;9.990;2022-08-01T11:21:20;28.20;68.80
7016;DHT22;3548;48.402;9.990;2022-08-01T11:23:50;28.40;68.80
7016;DHT22;3548;48.402;9.990;2022-08-01T11:26:19;28.60;68.20
7016;DHT22;3548;48.402;9.990;2022-08-01T11:28:46;28.80;68.10
7016;DHT22;3548;48.402;9.990;2022-08-01T11:38:41;28.70;64.80
7016;DHT22;3548;48.402;9.990;2022-08-01T11:41:15;28.70;65.20
7016;DHT22;3548;48.402;9.990;2022-08-01T11:44:01;28.70;66.40
7016;DHT22;3548;48.402;9.990;2022-08-01T11:46:56;28.80;65.40
7016;DHT22;3548;48.402;9.990;2022-08-01T11:49:27;28.60;66.10
7016;DHT22;3548;48.402;9.990;2022-08-01T11:54:32;28.20;66.30
7016;DHT22;3548;48.402;9.990;2022-08-01T11:56:59;28.20;66.20
7016;DHT22;3548;48.402;9.990;2022-08-01T11:59:25;28.20;66.40
7016;DHT22;3548;48.402;9.990;2022-08-01T12:01:51;28.20;66.50
7016;DHT22;3548;48.402;9.990;2022-08-01T12:04:17;28.20;67.70
7016;DHT22;3548;48.402;9.990;2022-08-01T12:06:43;28.00;68.40
7016;DHT22;3548;48.402;9.990;2022-08-01T12:09:19;28.00;68.90
7016;DHT22;3548;48.402;9.990;2022-08-01T12:11:46;27.80;69.60
7016;DHT22;3548;48.402;9.990;2022-08-01T12:14:19;27.70;70.60
7016;DHT22;3548;48.402;9.990;2022-08-01T12:16:53;27.50;72.10
7016;DHT22;3548;48.402;9.990;2022-08-01T12:19:23;27.20;73.80
7016;DHT22;3548;48.402;9.990;2022-08-01T12:22:08;26.90;77.60
7016;DHT22;3548;48.402;9.990;2022-08-01T12:24:35;26.60;80.90
7016;DHT22;3548;48.402;9.990;2022-08-01T12:27:02;26.30;82.00
7016;DHT22;3548;48.402;9.990;2022-08-01T12:29:40;26.00;83.30
7016;DHT22;3548;48.402;9.990;2022-08-01T12:32:42;25.80;84.10
7016;DHT22;3548;48.402;9.990;2022-08-01T12:35:10;25.80;85.40
7016;DHT22;3548;48.402;9.990;2022-08-01T12:37:41;25.80;85.20
7016;DHT22;3548;48.402;9.990;2022-08-01T12:40:27;25.80;85.60
7016;DHT22;3548;48.402;9.990;2022-08-01T12:42:56;25.90;85.40
7016;DHT22;3548;48.402;9.990;2022-08-01T12:45:25;26.00;85.10
7016;DHT22;3548;48.402;9.990;2022-08-01T12:47:55;26.20;84.40
7016;DHT22;3548;48.402;9.990;2022-08-01T12:50:26;26.30;84.30
7016;DHT22;3548;48.402;9.990;2022-08-01T12:52:54;26.40;84.80
7016;DHT22;3548;48.402;9.990;2022-08-01T12:55:21;26.60;85.00
7016;DHT22;3548;48.402;9.990;2022-08-01T13:00:28;27.00;83.00
7016;DHT22;3548;48.402;9.990;2022-08-01T13:05:28;27.30;81.70
7016;DHT22;3548;48.402;9.990;2022-08-01T13:08:12;27.50;81.60
7016;DHT22;3548;48.402;9.990;2022-08-01T13:10:38;27.60;80.70
7016;DHT22;3548;48.402;9.990;2022-08-01T13:13:04;27.60;80.80
7016;DHT22;3548;48.402;9.990;2022-08-01T13:15:33;27.70;81.20
7016;DHT22;3548;48.402;9.990;2022-08-01T13:18:27;27.80;80.90
7016;DHT22;3548;48.402;9.990;2022-08-01T13:21:12;27.80;81.40
7016;DHT22;3548;48.402;9.990;2022-08-01T13:23:40;27.70;80.60
7016;DHT22;3548;48.402;9.990;2022-08-01T13:26:06;27.60;80.60
7016;DHT22;3548;48.402;9.990;2022-08-01T13:28:33;27.60;80.80
7016;DHT22;3548;48.402;9.990;2022-08-01T13:31:04;27.40;80.00
7016;DHT22;3548;48.402;9.990;2022-08-01T13:33:45;27.40;79.80
7016;DHT22;3548;48.402;9.990;2022-08-01T13:36:12;27.50;79.40
7016;DHT22;3548;48.402;9.990;2022-08-01T13:38:40;27.50;78.90
7016;DHT22;3548;48.402;9.990;2022-08-01T13:41:25;27.50;79.00
7016;DHT22;3548;48.402;9.990;2022-08-01T13:43:52;27.50;79.60
7016;DHT22;3548;48.402;9.990;2022-08-01T13:46:18;27.60;80.00
7016;DHT22;3548;48.402;9.990;2022-08-01T13:48:44;27.70;78.70
7016;DHT22;3548;48.402;9.990;2022-08-01T13:51:09;27.60;79.10
7016;DHT22;3548;48.402;9.990;2022-08-01T13:53:36;27.60;79.70
7016;DHT22;3548;48.402;9.990;2022-08-01T13:56:02;27.60;80.30
7016;DHT22;3548;48.402;9.990;2022-08-01T13:58:28;27.70;80.50
7016;DHT22;3548;48.402;9.990;2022-08-01T14:00:54;27.80;80.50
7016;DHT22;3548;48.402;9.990;2022-08-01T14:03:21;27.90;80.60
7016;DHT22;3548;48.402;9.990;2022-08-01T14:05:46;28.10;80.40
7016;DHT22;3548;48.402;9.990;2022-08-01T14:08:12;28.10;79.10
7016;DHT22;3548;48.402;9.990;2022-08-01T14:10:38;28.20;77.50
7016;DHT22;3548;48.402;9.990;2022-08-01T14:13:03;28.50;76.10
7016;DHT22;3548;48.402;9.990;2022-08-01T14:15:30;28.70;74.90
7016;DHT22;3548;48.402;9.990;2022-08-01T14:17:56;28.90;74.20
7016;DHT22;3548;48.402;9.990;2022-08-01T14:20:22;29.10;73.50
7016;DHT22;3548;48.402;9.990;2022-08-01T14:22:48;29.20;73.00
7016;DHT22;3548;48.402;9.990;2022-08-01T14:25:14;29.30;72.70
7016;DHT22;3548;48.402;9.990;2022-08-01T14:27:40;29.40;70.70
7016;DHT22;3548;48.402;9.990;2022-08-01T14:30:07;29.50;71.30
7016;DHT22;3548;48.402;9.990;2022-08-01T14:32:34;29.50;72.10
7016;DHT22;3548;48.402;9.990;2022-08-01T14:35:01;29.50;71.50
7016;DHT22;3548;48.402;9.990;2022-08-01T14:37:27;29.50;70.80
7016;DHT22;3548;48.402;9.990;2022-08-01T14:39:54;29.50;71.10
7016;DHT22;3548;48.402;9.990;2022-08-01T14:42:20;29.50;70.40
7016;DHT22;3548;48.402;9.990;2022-08-01T14:44:46;29.40;70.80
7016;DHT22;3548;48.402;9.990;2022-08-01T14:47:11;29.30;70.30
7016;DHT22;3548;48.402;9.990;2022-08-01T14:49:36;29.20;71.00
7016;DHT22;3548;48.402;9.990;2022-08-01T14:52:02;29.00;71.40
7016;DHT22;3548;48.402;9.990;2022-08-01T14:54:28;29.00;70.40
7016;DHT22;3548;48.402;9.990;2022-08-01T14:56:53;29.00;70.30
7016;DHT22;3548;48.402;9.990;2022-08-01T14:59:19;29.10;70.40
7016;DHT22;3548;48.402;9.990;2022-08-01T15:01:45;29.30;70.40
7016;DHT22;3548;48.402;9.990;2022-08-01T15:04:10;29.50;69.70
7016;DHT22;3548;48.402;9.990;2022-08-01T15:06:36;29.50;70.10
7016;DHT22;3548;48.402;9.990;2022-08-01T15:09:02;29.40;70.30
7016;DHT22;3548;48.402;9.990;2022-08-01T15:11:28;29.40;70.20
7016;DHT22;3548;48.402;9.990;2022-08-01T15:13:54;29.30;70.10
7016;DHT22;3548;48.402;9.990;2022-08-01T15:16:38;29.20;69.30
7016;DHT22;3548;48.402;9.990;2022-08-01T15:19:04;29.00;68.60
7016;DHT22;3548;48.402;9.990;2022-08-01T15:21:29;28.80;69.60
7016;DHT22;3548;48.402;9.990;2022-08-01T15:23:55;28.80;69.20
7016;DHT22;3548;48.402;9.990;2022-08-01T15:26:20;28.80;69.10
7016;DHT22;3548;48.402;9.990;2022-08-01T15:28:46;28.80;69.20
7016;DHT22;3548;48.402;9.990;2022-08-01T15:31:12;28.70;69.40
7016;DHT22;3548;48.402;9.990;2022-08-01T15:33:37;28.60;70.00
7016;DHT22;3548;48.402;9.990;2022-08-01T15:36:03;28.50;69.90
7016;DHT22;3548;48.402;9.990;2022-08-01T15:38:29;28.30;69.60
7016;DHT22;3548;48.402;9.990;2022-08-01T15:40:56;28.20;69.90
7016;DHT22;3548;48.402;9.990;2022-08-01T15:43:22;28.00;70.10
7016;DHT22;3548;48.402;9.990;2022-08-01T15:45:47;27.90;70.40
7016;DHT22;3548;48.402;9.990;2022-08-01T15:48:13;27.70;71.20
7016;DHT22;3548;48.402;9.990;2022-08-01T15:50:39;27.50;72.40
7016;DHT22;3548;48.402;9.990;2022-08-01T15:53:05;27.20;74.80
7016;DHT22;3548;48.402;9.990;2022-08-01T15:55:31;26.80;77.30
7016;DHT22;3548;48.402;9.990;2022-08-01T15:57:57;26.40;80.70
7016;DHT22;3548;48.402;9.990;2022-08-01T16:00:22;25.90;86.80
7016;DHT22;3548;48.402;9.990;2022-08-01T16:02:48;25.50;90.30
7016;DHT22;3548;48.402;9.990;2022-08-01T16:05:14;25.10;91.90
7016;DHT22;3548;48.402;9.990;2022-08-01T16:07:39;24.90;93.60
7016;DHT22;3548;48.402;9.990;2022-08-01T16:10:05;24.60;95.70
7016;DHT22;3548;48.402;9.990;2022-08-01T16:12:31;24.30;95.80
7016;DHT22;3548;48.402;9.990;2022-08-01T16:14:57;24.20;97.00
7016;DHT22;3548;48.402;9.990;2022-08-01T16:17:22;24.00;94.80
7016;DHT22;3548;48.402;9.990;2022-08-01T16:19:48;23.90;95.00
7016;DHT22;3548;48.402;9.990;2022-08-01T16:22:15;23.90;96.40
7016;DHT22;3548;48.402;9.990;2022-08-01T16:24:41;23.90;95.90
7016;DHT22;3548;48.402;9.990;2022-08-01T16:27:06;23.90;96.90
7016;DHT22;3548;48.402;9.990;2022-08-01T16:29:32;24.00;96.80
7016;DHT22;3548;48.402;9.990;2022-08-01T16:31:58;24.00;96.40
7016;DHT22;3548;48.402;9.990;2022-08-01T16:34:25;24.00;95.20
7016;DHT22;3548;48.402;9.990;2022-08-01T16:36:53;23.90;95.60
7016;DHT22;3548;48.402;9.990;2022-08-01T16:39:20;23.90;96.20
7016;DHT22;3548;48.402;9.990;2022-08-01T16:41:46;24.00;95.50